createdAt,value
2022-08-24T00:02:07.512Z,7.82
2022-08-24T00:04:41.089Z,9.20
2022-08-24T00:07:13.834Z,7.47
2022-08-24T00:09:57.136Z,9.25
2022-08-24T00:12:27.971Z,9.38
2022-08-24T00:14:56.605Z,8.10
2022-08-24T00:17:25.436Z,8.55
2022-08-24T00:19:54.468Z,8.70
2022-08-24T00:22:23.029Z,7.95
2022-08-24T00:24:51.787Z,9.50
2022-08-24T00:27:20.362Z,6.43
2022-08-24T00:29:50.274Z,9.13
2022-08-24T00:32:19.004Z,8.60
2022-08-24T00:34:59.282Z,8.95
2022-08-24T00:37:29.914Z,8.27
2022-08-24T00:39:59.511Z,7.63
2022-08-24T00:42:28.149Z,9.43
2022-08-24T00:44:58.386Z,7.45
2022-08-24T00:47:33.674Z,9.70
2022-08-24T00:50:08.690Z,10.63
2022-08-24T00:52:47.458Z,8.57
2022-08-24T00:55:23.411Z,5.68
2022-08-24T00:57:58.946Z,9.05
2022-08-24T01:00:35.213Z,9.10
2022-08-24T01:03:07.452Z,10.23
2022-08-24T01:05:39.535Z,7.40
2022-08-24T01:08:13.000Z,7.28
2022-08-24T01:10:51.690Z,8.07
2022-08-24T01:13:21.167Z,10.05
2022-08-24T01:15:59.155Z,7.95
2022-08-24T01:18:46.973Z,8.25
2022-08-24T01:21:20.963Z,9.35
2022-08-24T01:23:54.677Z,9.88
2022-08-24T01:26:30.106Z,14.38
2022-08-24T01:29:05.401Z,10.43
2022-08-24T01:31:35.362Z,7.75
2022-08-24T01:34:05.676Z,8.70
2022-08-24T01:36:38.779Z,10.75
2022-08-24T01:39:16.032Z,7.78
2022-08-24T01:41:45.250Z,10.80
2022-08-24T01:44:15.403Z,8.43
2022-08-24T01:46:45.789Z,9.27
2022-08-24T01:49:14.976Z,10.40
2022-08-24T01:51:46.401Z,11.40
2022-08-24T01:54:17.724Z,10.95
2022-08-24T01:56:46.750Z,8.38
2022-08-24T01:59:18.086Z,9.80
2022-08-24T02:01:53.516Z,7.70
2022-08-24T02:04:22.376Z,8.82
2022-08-24T02:06:52.023Z,8.05
2022-08-24T02:09:22.145Z,8.95
2022-08-24T02:11:51.174Z,9.20
2022-08-24T02:14:20.684Z,7.93
2022-08-24T02:16:49.639Z,8.50
2022-08-24T02:19:27.294Z,11.00
2022-08-24T02:21:56.731Z,9.20
2022-08-24T02:24:27.074Z,8.93
2022-08-24T02:26:56.533Z,7.10
2022-08-24T02:29:25.895Z,8.10
2022-08-24T02:31:54.740Z,10.02
2022-08-24T02:34:23.619Z,10.52
2022-08-24T02:36:52.344Z,10.68
2022-08-24T02:39:22.372Z,9.05
2022-08-24T02:41:54.420Z,9.35
2022-08-24T02:44:23.764Z,7.95
2022-08-24T02:46:53.079Z,7.40
2022-08-24T02:49:23.259Z,8.25
2022-08-24T02:51:53.029Z,7.53
2022-08-24T02:54:23.494Z,11.98
2022-08-24T02:56:55.716Z,9.95
2022-08-24T02:59:24.762Z,10.05
2022-08-24T03:01:54.124Z,11.98
2022-08-24T03:04:24.580Z,7.32
2022-08-24T03:06:53.697Z,8.00
2022-08-24T03:09:24.728Z,9.15
2022-08-24T03:12:01.039Z,11.68
2022-08-24T03:14:29.593Z,7.60
2022-08-24T03:16:58.280Z,12.02
2022-08-24T03:19:27.159Z,9.82
2022-08-24T03:21:56.214Z,7.60
2022-08-24T03:24:25.014Z,11.85
2022-08-24T03:26:54.080Z,8.55
2022-08-24T03:29:25.456Z,8.98
2022-08-24T03:31:54.028Z,8.52
2022-08-24T03:34:22.813Z,11.02
2022-08-24T03:36:51.405Z,7.88
2022-08-24T03:39:20.054Z,12.25
2022-08-24T03:41:51.662Z,9.60
2022-08-24T03:44:23.165Z,9.98
2022-08-24T03:46:54.724Z,8.68
2022-08-24T03:49:25.874Z,6.97
2022-08-24T03:51:54.709Z,9.70
2022-08-24T03:54:25.394Z,9.43
2022-08-24T03:56:54.066Z,7.97
2022-08-24T03:59:23.746Z,10.10
2022-08-24T04:01:57.523Z,10.15
2022-08-24T04:04:30.498Z,10.18
2022-08-24T04:06:59.862Z,13.73
2022-08-24T04:09:29.681Z,10.75
2022-08-24T04:11:58.419Z,8.55
2022-08-24T04:14:28.227Z,10.63
2022-08-24T04:17:07.415Z,8.80
2022-08-24T04:19:57.770Z,10.48
2022-08-24T04:22:34.269Z,9.35
2022-08-24T04:25:09.487Z,10.38
2022-08-24T04:27:40.884Z,8.68
2022-08-24T04:30:14.069Z,8.70
2022-08-24T04:33:18.484Z,13.65
2022-08-24T04:35:50.419Z,14.73
2022-08-24T04:38:20.684Z,8.80
2022-08-24T04:41:15.489Z,11.38
2022-08-24T04:43:54.800Z,15.02
2022-08-24T04:46:24.244Z,10.27
2022-08-24T04:48:54.375Z,13.90
2022-08-24T04:51:23.734Z,11.50
2022-08-24T04:53:53.598Z,10.60
2022-08-24T04:56:25.432Z,9.25
2022-08-24T04:58:57.998Z,11.68
2022-08-24T05:01:32.725Z,10.43
2022-08-24T05:04:05.412Z,18.25
2022-08-24T05:06:34.846Z,12.25
2022-08-24T05:09:05.540Z,15.80
2022-08-24T05:11:39.592Z,13.77
2022-08-24T05:14:09.683Z,13.70
2022-08-24T05:16:45.575Z,17.60
2022-08-24T05:19:24.124Z,12.98
2022-08-24T05:21:53.127Z,15.68
2022-08-24T05:24:22.044Z,14.20
2022-08-24T05:26:53.240Z,18.73
2022-08-24T05:29:23.230Z,13.65
2022-08-24T05:31:53.609Z,10.75
2022-08-24T05:34:25.485Z,12.70
2022-08-24T05:36:54.913Z,12.60
2022-08-24T05:39:40.771Z,11.32
2022-08-24T05:42:10.951Z,14.98
2022-08-24T05:44:47.975Z,11.35
2022-08-24T05:47:20.865Z,14.48
2022-08-24T05:49:53.122Z,12.20
2022-08-24T05:52:24.982Z,12.68
2022-08-24T05:54:55.304Z,14.07
2022-08-24T05:57:26.276Z,13.27
2022-08-24T06:00:16.380Z,14.20
2022-08-24T06:02:48.431Z,13.45
2022-08-24T06:05:18.807Z,11.68
2022-08-24T06:07:48.111Z,12.50
2022-08-24T06:10:36.004Z,14.38
2022-08-24T06:13:05.809Z,12.82
2022-08-24T06:15:35.757Z,10.63
2022-08-24T06:18:05.822Z,14.30
2022-08-24T06:20:42.490Z,11.32
2022-08-24T06:23:11.761Z,11.35
2022-08-24T06:26:06.028Z,11.48
2022-08-24T06:28:34.965Z,12.75
2022-08-24T06:31:07.211Z,10.90
2022-08-24T06:33:37.021Z,12.95
2022-08-24T06:36:07.854Z,12.07
2022-08-24T06:38:36.880Z,11.95
2022-08-24T06:41:08.614Z,22.25
2022-08-24T06:43:38.240Z,12.05
2022-08-24T06:46:13.773Z,16.13
2022-08-24T06:48:46.874Z,10.27
2022-08-24T06:51:20.464Z,11.38
2022-08-24T06:53:51.434Z,12.43
2022-08-24T06:56:20.468Z,15.73
2022-08-24T06:58:49.176Z,12.75
2022-08-24T07:01:24.323Z,16.40
2022-08-24T07:03:53.522Z,16.75
2022-08-24T07:06:42.480Z,11.13
2022-08-24T07:09:12.261Z,17.88
2022-08-24T07:11:41.884Z,11.48
2022-08-24T07:14:11.719Z,11.20
2022-08-24T07:16:40.389Z,19.73
2022-08-24T07:19:10.069Z,12.98
2022-08-24T07:21:38.808Z,14.57
2022-08-24T07:24:10.750Z,16.45
2022-08-24T07:26:42.247Z,14.50
2022-08-24T07:29:43.636Z,12.85
2022-08-24T07:32:06.809Z,12.65
2022-08-24T07:34:38.467Z,15.98
2022-08-24T07:37:09.117Z,13.25
2022-08-24T07:39:42.792Z,12.25
2022-08-24T07:42:18.879Z,15.02
2022-08-24T07:44:52.752Z,14.65
2022-08-24T07:47:43.109Z,13.40
2022-08-24T07:50:24.814Z,17.42
2022-08-24T07:52:53.691Z,15.93
2022-08-24T07:55:23.965Z,13.10
2022-08-24T07:57:52.586Z,13.25
2022-08-24T08:00:22.986Z,18.88
2022-08-24T08:02:57.808Z,14.45
2022-08-24T08:05:26.927Z,20.38
2022-08-24T08:07:57.596Z,23.67
2022-08-24T08:10:31.148Z,19.02
2022-08-24T08:13:00.103Z,15.77
2022-08-24T08:15:29.108Z,16.42
2022-08-24T08:18:08.379Z,17.15
2022-08-24T08:20:42.649Z,19.00
2022-08-24T08:23:29.777Z,16.83
2022-08-24T08:26:23.059Z,23.20
2022-08-24T08:29:08.166Z,19.85
2022-08-24T08:31:39.752Z,18.00
2022-08-24T08:34:10.196Z,22.08
2022-08-24T08:36:41.695Z,20.50
2022-08-24T08:39:16.291Z,23.98
2022-08-24T08:42:58.116Z,26.00
2022-08-24T08:45:42.553Z,21.30
2022-08-24T08:49:20.125Z,20.98
2022-08-24T08:52:27.009Z,17.70
2022-08-24T08:55:21.237Z,25.98
2022-08-24T08:58:13.319Z,22.00
2022-08-24T09:01:01.578Z,30.33
2022-08-24T09:04:05.083Z,23.30
2022-08-24T09:07:13.049Z,28.10
2022-08-24T09:10:10.427Z,26.83
2022-08-24T09:13:06.735Z,18.80
2022-08-24T09:15:57.991Z,15.85
2022-08-24T09:18:48.448Z,19.42
2022-08-24T09:21:40.352Z,19.27
2022-08-24T09:24:42.141Z,19.95
2022-08-24T09:27:53.710Z,16.63
2022-08-24T09:30:27.236Z,19.42
2022-08-24T09:33:07.300Z,16.35
2022-08-24T09:36:10.859Z,18.33
2022-08-24T09:39:06.944Z,17.73
2022-08-24T09:42:31.635Z,16.50
2022-08-24T09:45:38.577Z,16.35
2022-08-24T09:48:54.571Z,21.95
2022-08-24T09:52:10.980Z,12.60
2022-08-24T09:55:37.128Z,19.80
2022-08-24T09:58:26.629Z,26.70
2022-08-24T10:01:09.933Z,16.30
2022-08-24T10:03:59.765Z,12.30
2022-08-24T10:06:46.727Z,13.10
2022-08-24T10:09:41.137Z,21.42
2022-08-24T10:12:21.943Z,16.77
2022-08-24T10:15:04.281Z,22.90
2022-08-24T10:18:01.892Z,13.45
2022-08-24T10:21:10.229Z,25.45
2022-08-24T10:23:59.987Z,21.00
2022-08-24T10:26:51.631Z,17.95
2022-08-24T10:29:43.044Z,22.10
2022-08-24T10:32:38.085Z,19.77
2022-08-24T10:35:15.641Z,20.98
2022-08-24T10:38:47.523Z,23.80
2022-08-24T10:42:07.164Z,22.27
2022-08-24T10:44:50.111Z,24.08
2022-08-24T10:47:24.465Z,25.20
2022-08-24T10:50:34.794Z,18.67
2022-08-24T10:53:23.733Z,16.92
2022-08-24T10:56:06.589Z,30.45
2022-08-24T10:59:03.288Z,25.33
2022-08-24T11:01:36.921Z,18.88
2022-08-24T11:04:11.222Z,23.55
2022-08-24T11:06:45.155Z,24.30
2022-08-24T11:09:19.648Z,20.45
2022-08-24T11:11:51.255Z,18.15
2022-08-24T11:14:29.528Z,21.52
2022-08-24T11:17:17.525Z,20.15
2022-08-24T11:19:46.877Z,22.63
2022-08-24T11:22:40.760Z,19.92
2022-08-24T11:25:21.793Z,24.90
2022-08-24T11:27:59.057Z,19.35
2022-08-24T11:30:31.120Z,22.10
2022-08-24T11:33:03.341Z,21.17
2022-08-24T11:35:39.926Z,24.17
2022-08-24T11:38:18.648Z,27.08
2022-08-24T11:40:55.705Z,25.30
2022-08-24T11:43:43.098Z,21.88
2022-08-24T11:46:28.718Z,31.85
2022-08-24T11:49:10.814Z,19.70
2022-08-24T11:51:55.369Z,26.95
2022-08-24T11:54:39.976Z,21.15
2022-08-24T11:57:18.234Z,19.65
2022-08-24T11:59:56.355Z,27.20
2022-08-24T12:02:35.048Z,29.50
2022-08-24T12:05:22.672Z,34.83
2022-08-24T12:08:06.806Z,26.67
2022-08-24T12:10:51.085Z,25.30
2022-08-24T12:13:37.279Z,28.92
2022-08-24T12:16:17.539Z,25.60
2022-08-24T12:18:58.325Z,30.58
2022-08-24T12:21:33.145Z,35.65
2022-08-24T12:24:08.215Z,31.70
2022-08-24T12:26:43.743Z,31.92
2022-08-24T12:29:22.115Z,37.70
2022-08-24T12:31:56.919Z,28.13
2022-08-24T12:34:38.207Z,24.33
2022-08-24T12:37:17.465Z,36.10
2022-08-24T12:39:55.272Z,22.73
2022-08-24T12:42:39.403Z,35.65
2022-08-24T12:45:12.661Z,22.92
2022-08-24T12:47:51.457Z,29.38
2022-08-24T12:50:33.008Z,23.17
2022-08-24T12:53:30.142Z,26.58
2022-08-24T12:57:07.617Z,32.50
2022-08-24T12:59:45.355Z,30.48
2022-08-24T13:02:36.663Z,30.67
2022-08-24T13:05:15.376Z,32.20
2022-08-24T13:07:48.769Z,39.35
2022-08-24T13:10:44.922Z,44.58
2022-08-24T13:13:39.075Z,36.00
2022-08-24T13:16:32.495Z,42.88
2022-08-24T13:19:19.267Z,28.98
2022-08-24T13:21:55.998Z,34.38
2022-08-24T13:24:52.823Z,41.13
2022-08-24T13:28:02.490Z,39.35
2022-08-24T13:31:13.952Z,37.28
2022-08-24T13:33:48.746Z,36.58
2022-08-24T13:36:56.005Z,40.30
2022-08-24T13:39:52.776Z,36.28
2022-08-24T13:42:52.641Z,44.60
2022-08-24T13:45:35.206Z,27.10
2022-08-24T13:48:27.095Z,40.47
2022-08-24T13:51:30.107Z,20.98
2022-08-24T13:54:20.246Z,29.13
2022-08-24T13:57:10.065Z,47.10
2022-08-24T14:00:03.329Z,37.17
2022-08-24T14:03:00.130Z,34.50
2022-08-24T14:05:38.468Z,33.05
2022-08-24T14:08:31.209Z,39.97
2022-08-24T14:11:10.969Z,48.72
2022-08-24T14:14:04.159Z,43.53
2022-08-24T14:17:20.159Z,37.90
2022-08-24T14:20:04.102Z,49.58
2022-08-24T14:22:40.653Z,54.35
2022-08-24T14:25:24.197Z,38.72
2022-08-24T14:28:38.924Z,38.17
2022-08-24T14:31:28.224Z,39.60
2022-08-24T14:34:18.935Z,34.28
2022-08-24T14:36:57.715Z,49.08
2022-08-24T14:39:40.237Z,36.97
2022-08-24T14:42:22.653Z,53.55
2022-08-24T14:45:07.922Z,41.80
2022-08-24T14:47:54.977Z,54.00
2022-08-24T14:50:33.306Z,52.22
2022-08-24T14:53:34.137Z,40.60
2022-08-24T14:56:25.191Z,59.55
2022-08-24T14:59:11.004Z,35.60
2022-08-24T15:01:44.856Z,44.85
2022-08-24T15:04:38.005Z,41.85
2022-08-24T15:07:28.640Z,42.45
2022-08-24T15:10:01.009Z,34.67
2022-08-24T15:12:42.808Z,51.47
2022-08-24T15:15:25.528Z,39.08
2022-08-24T15:18:06.885Z,44.08
2022-08-24T15:20:57.596Z,45.13
2022-08-24T15:23:45.447Z,33.70
2022-08-24T15:26:28.599Z,41.60
2022-08-24T15:28:58.090Z,37.65
2022-08-24T15:31:32.392Z,45.50
2022-08-24T15:34:04.321Z,42.58
2022-08-24T15:36:34.772Z,52.67
2022-08-24T15:39:06.479Z,44.20
2022-08-24T15:41:39.992Z,39.53
2022-08-24T15:44:21.179Z,43.95
2022-08-24T15:46:58.917Z,51.78
2022-08-24T15:49:35.368Z,47.13
2022-08-24T15:52:08.115Z,56.60
2022-08-24T15:54:59.073Z,58.30
2022-08-24T15:57:31.369Z,49.50
2022-08-24T16:00:13.896Z,37.63
2022-08-24T16:02:43.668Z,38.75
2022-08-24T16:05:21.452Z,52.08
2022-08-24T16:08:11.056Z,57.13
2022-08-24T16:10:44.869Z,46.17
2022-08-24T16:13:28.300Z,54.33
2022-08-24T16:16:06.114Z,52.78
2022-08-24T16:18:50.849Z,31.48
2022-08-24T16:21:28.890Z,59.38
2022-08-24T16:24:08.283Z,48.47
2022-08-24T16:26:57.920Z,48.67
2022-08-24T16:29:55.845Z,51.20
2022-08-24T16:32:30.579Z,44.70
2022-08-24T16:35:23.147Z,37.08
2022-08-24T16:37:54.790Z,42.97
2022-08-24T16:40:24.745Z,44.00
2022-08-24T16:42:55.400Z,48.88
2022-08-24T16:45:24.918Z,41.67
2022-08-24T16:47:53.914Z,38.35
2022-08-24T16:50:27.496Z,38.72
2022-08-24T16:52:56.604Z,62.92
2022-08-24T16:55:25.723Z,58.38
2022-08-24T16:57:54.341Z,46.92
2022-08-24T17:00:23.818Z,40.10
2022-08-24T17:02:52.498Z,57.67
2022-08-24T17:05:21.115Z,43.65
2022-08-24T17:07:51.860Z,50.67
2022-08-24T17:10:23.274Z,38.00
2022-08-24T17:12:52.208Z,56.50
2022-08-24T17:15:22.295Z,52.25
2022-08-24T17:18:00.043Z,50.38
2022-08-24T17:20:29.422Z,47.30
2022-08-24T17:22:59.868Z,54.80
2022-08-24T17:25:30.426Z,38.60
2022-08-24T17:28:01.204Z,43.03
2022-08-24T17:30:30.883Z,41.78
2022-08-24T17:33:00.637Z,26.83
2022-08-24T17:35:29.596Z,34.63
2022-08-24T17:38:01.032Z,32.53
2022-08-24T17:40:32.029Z,29.45
2022-08-24T17:43:00.922Z,25.98
2022-08-24T17:45:29.911Z,28.23
2022-08-24T17:47:58.732Z,24.60
2022-08-24T17:50:28.569Z,32.08
2022-08-24T17:53:00.234Z,29.42
2022-08-24T17:55:30.847Z,30.92
2022-08-24T17:58:01.914Z,26.17
2022-08-24T18:00:30.793Z,28.52
2022-08-24T18:02:59.682Z,38.85
2022-08-24T18:05:28.846Z,29.15
2022-08-24T18:07:58.003Z,25.63
2022-08-24T18:10:32.310Z,34.50
2022-08-24T18:13:03.610Z,32.47
2022-08-24T18:15:37.440Z,28.63
2022-08-24T18:18:09.804Z,24.75
2022-08-24T18:20:42.558Z,28.20
2022-08-24T18:23:12.576Z,28.63
2022-08-24T18:25:48.491Z,27.30
2022-08-24T18:28:21.944Z,31.30
2022-08-24T18:30:52.584Z,23.65
2022-08-24T18:33:21.714Z,22.00
2022-08-24T18:35:50.429Z,28.27
2022-08-24T18:38:19.214Z,23.02
2022-08-24T18:40:52.863Z,27.73
2022-08-24T18:43:24.936Z,26.23
2022-08-24T18:45:54.856Z,23.17
2022-08-24T18:48:24.094Z,32.78
2022-08-24T18:50:54.768Z,30.23
2022-08-24T18:53:27.313Z,42.47
2022-08-24T18:55:59.664Z,36.80
2022-08-24T18:58:30.526Z,25.65
2022-08-24T19:00:59.309Z,29.40
2022-08-24T19:03:28.879Z,28.95
2022-08-24T19:05:57.678Z,22.30
2022-08-24T19:08:26.411Z,32.53
2022-08-24T19:10:56.641Z,24.02
2022-08-24T19:13:25.591Z,27.08
2022-08-24T19:15:54.355Z,28.05
2022-08-24T19:18:23.889Z,28.33
2022-08-24T19:20:57.559Z,18.98
2022-08-24T19:23:30.363Z,27.13
2022-08-24T19:26:01.981Z,30.42
2022-08-24T19:28:31.902Z,30.83
2022-08-24T19:31:05.291Z,19.83
2022-08-24T19:33:38.287Z,19.25
2022-08-24T19:36:10.497Z,14.70
2022-08-24T19:38:39.373Z,17.10
2022-08-24T19:41:12.662Z,24.33
2022-08-24T19:43:57.042Z,21.55
2022-08-24T19:46:26.482Z,22.05
2022-08-24T19:48:55.334Z,16.90
2022-08-24T19:51:23.911Z,16.05
2022-08-24T19:53:52.942Z,16.15
2022-08-24T19:56:23.788Z,15.85
2022-08-24T19:59:01.704Z,19.27
2022-08-24T20:01:34.862Z,16.13
2022-08-24T20:04:06.357Z,16.23
2022-08-24T20:06:37.193Z,9.95
2022-08-24T20:09:06.912Z,12.38
2022-08-24T20:11:38.944Z,9.32
2022-08-24T20:14:08.106Z,8.18
2022-08-24T20:16:42.138Z,10.52
2022-08-24T20:19:12.813Z,10.95
2022-08-24T20:21:41.716Z,15.45
2022-08-24T20:24:11.298Z,12.57
2022-08-24T20:26:45.089Z,12.45
2022-08-24T20:29:15.265Z,11.00
2022-08-24T20:31:45.451Z,12.55
2022-08-24T20:34:14.555Z,9.00
2022-08-24T20:36:50.706Z,9.00
2022-08-24T20:39:25.336Z,11.95
2022-08-24T20:41:56.182Z,12.43
2022-08-24T20:44:24.938Z,9.52
2022-08-24T20:46:54.856Z,12.35
2022-08-24T20:49:27.827Z,14.02
2022-08-24T20:51:56.615Z,12.13
2022-08-24T20:54:25.469Z,12.85
2022-08-24T20:56:55.731Z,9.57
2022-08-24T20:59:24.370Z,9.00
2022-08-24T21:01:55.868Z,11.23
2022-08-24T21:04:24.616Z,11.55
2022-08-24T21:06:53.457Z,9.82
2022-08-24T21:09:22.488Z,14.32
2022-08-24T21:11:51.134Z,16.15
2022-08-24T21:14:21.066Z,13.07
2022-08-24T21:16:49.891Z,8.98
2022-08-24T21:19:18.430Z,13.85
2022-08-24T21:21:48.361Z,12.30
2022-08-24T21:24:17.938Z,14.60
2022-08-24T21:26:47.055Z,9.63
2022-08-24T21:29:15.747Z,14.88
2022-08-24T21:32:06.179Z,14.10
2022-08-24T21:34:42.728Z,16.20
2022-08-24T21:37:15.140Z,13.88
2022-08-24T21:39:46.725Z,11.45
2022-08-24T21:42:17.514Z,19.42
2022-08-24T21:44:48.825Z,18.25
2022-08-24T21:47:18.990Z,15.90
2022-08-24T21:49:47.567Z,21.70
2022-08-24T21:52:16.297Z,13.93
2022-08-24T21:54:45.318Z,15.43
2022-08-24T21:57:14.050Z,14.18
2022-08-24T21:59:43.238Z,17.33
2022-08-24T22:02:13.507Z,16.52
2022-08-24T22:04:47.039Z,17.85
2022-08-24T22:07:23.962Z,15.38
2022-08-24T22:09:52.566Z,14.52
2022-08-24T22:12:21.170Z,16.48
2022-08-24T22:14:49.969Z,15.15
2022-08-24T22:17:18.629Z,10.55
2022-08-24T22:19:48.519Z,15.30
2022-08-24T22:22:17.315Z,17.85
2022-08-24T22:24:46.019Z,13.60
2022-08-24T22:27:14.995Z,15.45
2022-08-24T22:29:43.828Z,13.55
2022-08-24T22:32:12.676Z,16.42
2022-08-24T22:34:41.239Z,15.00
2022-08-24T22:37:11.416Z,11.27
2022-08-24T22:39:39.975Z,10.35
2022-08-24T22:42:09.453Z,12.23
2022-08-24T22:44:38.273Z,11.82
2022-08-24T22:47:13.271Z,10.95
2022-08-24T22:49:44.790Z,9.77
2022-08-24T22:52:16.683Z,12.23
2022-08-24T22:54:45.425Z,8.80
2022-08-24T22:57:14.341Z,10.13
2022-08-24T22:59:48.543Z,11.23
2022-08-24T23:02:19.752Z,17.05
2022-08-24T23:04:52.777Z,9.80
2022-08-24T23:07:23.089Z,11.68
2022-08-24T23:09:52.175Z,10.85
2022-08-24T23:12:24.224Z,11.32
2022-08-24T23:14:54.046Z,9.27
2022-08-24T23:17:23.781Z,12.90
2022-08-24T23:20:01.466Z,11.73
2022-08-24T23:22:36.112Z,8.77
2022-08-24T23:25:06.999Z,9.82
2022-08-24T23:27:37.916Z,11.98
2022-08-24T23:30:12.478Z,14.88
2022-08-24T23:32:43.097Z,6.65
2022-08-24T23:35:11.728Z,10.80
2022-08-24T23:37:42.273Z,8.05
2022-08-24T23:40:12.574Z,10.35
2022-08-24T23:42:41.171Z,8.50
2022-08-24T23:45:12.377Z,10.63
2022-08-24T23:47:41.850Z,11.88
2022-08-24T23:50:11.734Z,7.72
2022-08-24T23:52:42.209Z,8.73
2022-08-24T23:55:20.970Z,10.32
2022-08-24T23:57:52.554Z,7.15
